Edwards County Information

FAA: ECU - ICAO: KECU

Edwards County (Airport) Location

State Texas
County Edwards
City Rocksprings
Edwards County (Airport) is 4 miles southeast of Rocksprings, TX.
Latitude 29-56-48.9105N
Longitude 100-10-25.8768W
Elevation 2,372ft

Edwards County METARs

METAR KECU 251655Z AUTO 07009KT 040V100 10SM CLR 15/M01 A3011 RMK AO2
Altimeter 30.11"
Temperature 15.0°C (59.0°F)
Wind 70° at 9KT
Clouds Skies are clear.
Visibility 10.0mi
Time observed: 2022-01-25T16:55:00Z

Edwards County (Airport) Details

Status Operational
Activation February 1977
Ownership Public
Usage Public
Chart SAN ANTONIO
ATC on-site No
Beacon schedule sunset-sunrise
Beacon color clear green

Edwards County (Airport) Contacts

Owner COUNTY OF EDWARDS
Owner address EDWARDS CTY COURTHOUSE, ROCKSPRINGS, TX 78880
Owner phone 830-683-6122
Manager ED GLINKSKY
Manager address 2179 COUNTY ROAD 4421, RHOME, TX 76078
Manager phone (940) 627-2494

Edwards County Radio Frequencies

Edwards County (Airport) Radio Frequencies

UNICOM N/A
Common traffic advisory frequency (CTAF) 122.9